createdAt,value
2023-03-08T00:00:44.614Z,10.93
2023-03-08T00:03:14.046Z,10.95
2023-03-08T00:05:41.187Z,10.35
2023-03-08T00:08:08.169Z,10.02
2023-03-08T00:10:35.202Z,11.52
2023-03-08T00:13:02.199Z,10.27
2023-03-08T00:15:29.219Z,10.57
2023-03-08T00:17:56.185Z,10.73
2023-03-08T00:20:23.201Z,11.43
2023-03-08T00:22:50.297Z,12.27
2023-03-08T00:25:17.552Z,10.98
2023-03-08T00:27:44.606Z,10.85
2023-03-08T00:30:12.538Z,10.68
2023-03-08T00:32:39.584Z,12.15
2023-03-08T00:35:06.719Z,11.88
2023-03-08T00:37:33.765Z,9.85
2023-03-08T00:40:00.757Z,9.60
2023-03-08T00:42:27.785Z,10.20
2023-03-08T00:44:54.820Z,10.80
2023-03-08T00:47:21.766Z,10.98
2023-03-08T00:49:48.845Z,11.15
2023-03-08T00:52:15.875Z,9.93
2023-03-08T00:54:42.881Z,9.57
2023-03-08T00:57:09.883Z,9.05
2023-03-08T00:59:36.918Z,11.07
2023-03-08T01:02:03.922Z,9.95
2023-03-08T01:04:33.198Z,8.15
2023-03-08T01:07:03.168Z,10.05
2023-03-08T01:09:30.181Z,7.53
2023-03-08T01:11:57.175Z,9.05
2023-03-08T01:14:24.219Z,8.30
2023-03-08T01:16:51.231Z,8.98
2023-03-08T01:19:18.263Z,8.40
2023-03-08T01:21:45.231Z,10.20
2023-03-08T01:24:12.261Z,9.57
2023-03-08T01:26:39.262Z,7.55
2023-03-08T01:29:06.944Z,10.18
2023-03-08T01:31:33.955Z,8.02
2023-03-08T01:34:01.018Z,8.38
2023-03-08T01:36:28.487Z,8.15
2023-03-08T01:38:55.745Z,9.55
2023-03-08T01:41:27.147Z,8.75
2023-03-08T01:43:54.431Z,10.60
2023-03-08T01:46:24.317Z,9.82
2023-03-08T01:48:51.305Z,10.13
2023-03-08T01:51:21.534Z,10.07
2023-03-08T01:53:48.605Z,10.73
2023-03-08T01:56:16.803Z,9.57
2023-03-08T01:58:45.743Z,11.57
2023-03-08T02:01:12.913Z,10.32
2023-03-08T02:03:39.955Z,9.88
2023-03-08T02:06:07.402Z,9.50
2023-03-08T02:08:34.755Z,9.45
2023-03-08T02:11:02.134Z,9.88
2023-03-08T02:13:29.371Z,9.35
2023-03-08T02:15:57.478Z,9.00
2023-03-08T02:18:24.632Z,10.60
2023-03-08T02:20:51.731Z,10.57
2023-03-08T02:23:20.872Z,12.05
2023-03-08T02:25:54.985Z,11.82
2023-03-08T02:28:23.231Z,14.82
2023-03-08T02:30:50.828Z,11.82
2023-03-08T02:33:18.769Z,11.18
2023-03-08T02:35:46.059Z,11.45
2023-03-08T02:38:13.959Z,13.27
2023-03-08T02:40:41.082Z,12.82
2023-03-08T02:43:08.680Z,14.75
2023-03-08T02:45:35.941Z,14.00
2023-03-08T02:48:03.968Z,14.25
2023-03-08T02:50:31.560Z,14.30
2023-03-08T02:52:59.060Z,13.35
2023-03-08T02:55:26.973Z,13.45
2023-03-08T02:57:54.037Z,14.57
2023-03-08T03:00:21.378Z,14.02
2023-03-08T03:02:48.593Z,14.90
2023-03-08T03:05:15.684Z,16.77
2023-03-08T03:07:43.715Z,16.80
2023-03-08T03:10:11.921Z,15.20
2023-03-08T03:12:39.420Z,17.02
2023-03-08T03:15:07.153Z,17.83
2023-03-08T03:17:34.174Z,16.65
2023-03-08T03:20:01.152Z,19.02
2023-03-08T03:22:28.555Z,17.20
2023-03-08T03:24:55.526Z,15.60
2023-03-08T03:27:22.508Z,16.58
2023-03-08T03:29:49.510Z,15.88
2023-03-08T03:32:16.763Z,14.13
2023-03-08T03:34:43.817Z,14.95
2023-03-08T03:37:10.855Z,14.15
2023-03-08T03:39:38.997Z,14.05
2023-03-08T03:42:06.815Z,13.20
2023-03-08T03:44:33.831Z,14.02
2023-03-08T03:47:00.910Z,12.70
2023-03-08T03:49:28.160Z,14.02
2023-03-08T03:51:55.223Z,15.18
2023-03-08T03:54:22.256Z,13.57
2023-03-08T03:56:49.342Z,14.35
2023-03-08T03:59:16.339Z,14.10
2023-03-08T04:01:43.618Z,11.15
2023-03-08T04:04:11.261Z,12.07
2023-03-08T04:06:38.387Z,9.80
2023-03-08T04:09:07.070Z,8.57
2023-03-08T04:11:38.096Z,9.88
2023-03-08T04:14:05.553Z,9.20
2023-03-08T04:16:34.240Z,11.95
2023-03-08T04:19:02.289Z,9.45
2023-03-08T04:21:29.679Z,9.73
2023-03-08T04:24:04.016Z,11.05
2023-03-08T04:26:31.091Z,9.70
2023-03-08T04:28:58.319Z,11.20
2023-03-08T04:31:29.310Z,11.07
2023-03-08T04:33:58.085Z,12.38
2023-03-08T04:36:25.087Z,12.32
2023-03-08T04:38:52.380Z,10.13
2023-03-08T04:41:19.925Z,12.40
2023-03-08T04:43:50.865Z,11.52
2023-03-08T04:46:18.681Z,9.63
2023-03-08T04:48:46.230Z,10.38
2023-03-08T04:51:13.871Z,10.75
2023-03-08T04:53:41.763Z,11.18
2023-03-08T04:56:09.805Z,10.77
2023-03-08T04:58:37.510Z,10.90
2023-03-08T05:01:15.343Z,12.43
2023-03-08T05:03:42.789Z,11.65
2023-03-08T05:06:10.420Z,12.05
2023-03-08T05:08:37.536Z,11.38
2023-03-08T05:11:04.703Z,12.32
2023-03-08T05:13:33.571Z,11.48
2023-03-08T05:16:00.646Z,12.35
2023-03-08T05:18:27.736Z,14.13
2023-03-08T05:20:55.814Z,13.45
2023-03-08T05:23:23.030Z,13.65
2023-03-08T05:25:52.436Z,12.18
2023-03-08T05:28:19.598Z,14.20
2023-03-08T05:30:46.624Z,15.10
2023-03-08T05:33:13.691Z,13.23
2023-03-08T05:35:40.799Z,12.45
2023-03-08T05:38:07.831Z,13.38
2023-03-08T05:40:34.905Z,12.70
2023-03-08T05:43:01.894Z,13.35
2023-03-08T05:45:28.964Z,13.50
2023-03-08T05:47:56.002Z,14.13
2023-03-08T05:50:22.960Z,12.82
2023-03-08T05:52:50.065Z,12.68
2023-03-08T05:55:17.043Z,14.07
2023-03-08T05:57:44.113Z,13.68
2023-03-08T06:00:13.627Z,14.23
2023-03-08T06:02:41.695Z,12.05
2023-03-08T06:05:08.919Z,14.85
2023-03-08T06:07:36.007Z,14.27
2023-03-08T06:10:02.988Z,13.73
2023-03-08T06:12:30.011Z,13.48
2023-03-08T06:14:57.060Z,13.68
2023-03-08T06:17:24.110Z,12.52
2023-03-08T06:19:51.129Z,14.57
2023-03-08T06:22:18.165Z,17.17
2023-03-08T06:24:49.479Z,14.27
2023-03-08T06:27:17.743Z,14.73
2023-03-08T06:29:44.827Z,16.70
2023-03-08T06:32:11.883Z,15.45
2023-03-08T06:34:38.921Z,16.52
2023-03-08T06:37:05.987Z,15.60
2023-03-08T06:39:34.073Z,16.30
2023-03-08T06:42:04.111Z,17.63
2023-03-08T06:44:31.361Z,17.80
2023-03-08T06:46:58.612Z,17.70
2023-03-08T06:49:25.630Z,16.50
2023-03-08T06:51:52.739Z,16.48
2023-03-08T06:54:19.761Z,15.77
2023-03-08T06:56:47.832Z,17.92
2023-03-08T06:59:15.237Z,16.38
2023-03-08T07:01:42.352Z,16.40
2023-03-08T07:04:09.484Z,16.30
2023-03-08T07:06:36.628Z,15.02
2023-03-08T07:09:04.648Z,16.73
2023-03-08T07:11:33.586Z,16.23
2023-03-08T07:14:00.594Z,15.20
2023-03-08T07:16:28.724Z,16.17
2023-03-08T07:18:56.912Z,16.33
2023-03-08T07:21:24.456Z,16.50
2023-03-08T07:23:52.796Z,16.45
2023-03-08T07:26:19.920Z,15.85
2023-03-08T07:28:51.438Z,17.30
2023-03-08T07:31:18.626Z,16.75
2023-03-08T07:33:45.679Z,16.05
2023-03-08T07:36:12.927Z,16.10
2023-03-08T07:38:40.029Z,17.48
2023-03-08T07:41:07.067Z,16.15
2023-03-08T07:43:34.061Z,14.30
2023-03-08T07:46:02.489Z,15.55
2023-03-08T07:48:29.839Z,15.70
2023-03-08T07:51:01.192Z,15.90
2023-03-08T07:53:28.225Z,16.33
2023-03-08T07:55:55.256Z,19.08
2023-03-08T07:58:22.336Z,16.83
2023-03-08T08:00:49.424Z,17.77
2023-03-08T08:03:16.479Z,19.40
2023-03-08T08:05:43.689Z,17.13
2023-03-08T08:08:13.672Z,16.02
2023-03-08T08:10:41.847Z,19.15
2023-03-08T08:13:09.193Z,16.80
2023-03-08T08:15:36.359Z,17.20
2023-03-08T08:18:04.150Z,18.33
2023-03-08T08:20:31.247Z,19.65
2023-03-08T08:22:58.223Z,18.15
2023-03-08T08:25:25.363Z,18.95
2023-03-08T08:27:52.436Z,19.98
2023-03-08T08:30:19.639Z,20.05
2023-03-08T08:32:46.747Z,18.38
2023-03-08T08:35:13.842Z,19.60
2023-03-08T08:37:40.917Z,18.98
2023-03-08T08:40:08.178Z,18.23
2023-03-08T08:42:35.185Z,20.10
2023-03-08T08:45:02.265Z,20.50
2023-03-08T08:47:29.752Z,19.60
2023-03-08T08:49:56.853Z,20.83
2023-03-08T08:52:23.954Z,20.88
2023-03-08T08:54:51.798Z,19.65
2023-03-08T08:57:18.822Z,21.23
2023-03-08T08:59:45.823Z,19.40
2023-03-08T09:02:12.921Z,20.30
2023-03-08T09:04:40.068Z,21.15
2023-03-08T09:07:07.440Z,21.42
2023-03-08T09:09:34.541Z,20.30
2023-03-08T09:12:01.523Z,22.38
2023-03-08T09:14:28.536Z,20.17
2023-03-08T09:16:55.728Z,20.58
2023-03-08T09:19:22.894Z,21.15
2023-03-08T09:21:49.960Z,21.73
2023-03-08T09:24:17.137Z,22.40
2023-03-08T09:26:44.147Z,19.63
2023-03-08T09:29:11.951Z,21.95
2023-03-08T09:31:39.366Z,18.92
2023-03-08T09:34:08.862Z,19.17
2023-03-08T09:36:36.873Z,21.20
2023-03-08T09:39:05.198Z,17.88
2023-03-08T09:41:32.181Z,19.67
2023-03-08T09:44:17.795Z,19.17
2023-03-08T09:46:47.269Z,17.30
2023-03-08T09:49:16.874Z,15.90
2023-03-08T09:51:46.721Z,17.60
2023-03-08T09:54:17.824Z,18.13
2023-03-08T09:56:49.392Z,18.20
2023-03-08T09:59:33.830Z,17.33
2023-03-08T10:02:19.499Z,14.18
2023-03-08T10:05:13.601Z,15.63
2023-03-08T10:07:50.334Z,15.60
2023-03-08T10:10:23.620Z,15.30
2023-03-08T10:13:08.074Z,12.02
2023-03-08T10:15:40.778Z,16.33
2023-03-08T10:18:14.097Z,13.63
2023-03-08T10:20:41.445Z,15.88
2023-03-08T10:23:14.860Z,14.02
2023-03-08T10:25:49.649Z,15.45
2023-03-08T10:28:20.811Z,13.75
2023-03-08T10:30:56.279Z,13.05
2023-03-08T10:33:24.489Z,14.00
2023-03-08T10:35:54.330Z,12.88
2023-03-08T10:38:21.916Z,13.35
2023-03-08T10:40:48.946Z,11.57
2023-03-08T10:43:24.877Z,12.65
2023-03-08T10:46:03.045Z,11.75
2023-03-08T10:48:30.179Z,12.57
2023-03-08T10:51:01.193Z,10.95
2023-03-08T10:53:29.833Z,11.07
2023-03-08T10:55:57.630Z,11.82
2023-03-08T10:58:50.726Z,13.25
2023-03-08T11:01:28.876Z,12.88
2023-03-08T11:04:06.584Z,12.82
2023-03-08T11:06:35.341Z,13.73
2023-03-08T11:09:03.504Z,14.30
2023-03-08T11:11:40.968Z,13.77
2023-03-08T11:14:10.129Z,14.82
2023-03-08T11:16:47.089Z,13.48
2023-03-08T11:19:23.032Z,13.35
2023-03-08T11:22:00.103Z,13.30
2023-03-08T11:24:39.825Z,12.88
2023-03-08T11:27:06.917Z,13.00
2023-03-08T11:29:50.447Z,14.30
2023-03-08T11:32:42.820Z,12.65
2023-03-08T11:35:09.872Z,11.02
2023-03-08T11:37:36.935Z,11.55
2023-03-08T11:40:24.224Z,11.38
2023-03-08T11:42:57.506Z,11.20
2023-03-08T11:45:34.131Z,10.48
2023-03-08T11:48:19.347Z,9.93
2023-03-08T11:50:52.476Z,9.00
2023-03-08T11:53:19.575Z,10.75
2023-03-08T11:55:46.532Z,7.53
2023-03-08T11:58:28.586Z,9.82
2023-03-08T12:00:59.887Z,9.95
2023-03-08T12:03:39.084Z,10.43
2023-03-08T12:06:22.845Z,9.98
2023-03-08T12:09:13.899Z,10.18
2023-03-08T12:11:43.260Z,8.73
2023-03-08T12:14:21.740Z,9.20
2023-03-08T12:16:55.629Z,9.77
2023-03-08T12:19:41.380Z,11.52
2023-03-08T12:22:17.654Z,8.85
2023-03-08T12:25:03.263Z,7.65
2023-03-08T12:27:35.454Z,10.25
2023-03-08T12:30:13.907Z,10.20
2023-03-08T12:32:41.901Z,8.70
2023-03-08T12:35:29.411Z,8.15
2023-03-08T12:37:57.608Z,9.48
2023-03-08T12:40:27.934Z,9.10
2023-03-08T12:43:12.908Z,9.65
2023-03-08T12:45:44.852Z,9.50
2023-03-08T12:48:20.115Z,9.85
2023-03-08T12:50:55.937Z,9.80
2023-03-08T12:53:39.681Z,9.95
2023-03-08T12:58:40.353Z,8.15
2023-03-08T13:01:08.866Z,8.25
2023-03-08T13:03:42.608Z,9.07
2023-03-08T13:06:25.636Z,8.75
2023-03-08T13:08:56.140Z,9.60
2023-03-08T13:11:25.180Z,7.32
2023-03-08T13:13:57.134Z,8.48
2023-03-08T13:16:27.015Z,8.88
2023-03-08T13:19:02.393Z,9.68
2023-03-08T13:21:38.404Z,8.82
2023-03-08T13:24:11.325Z,8.80
2023-03-08T13:26:50.404Z,7.47
2023-03-08T13:29:18.820Z,7.77
2023-03-08T13:31:46.772Z,6.75
2023-03-08T13:34:27.835Z,9.15
2023-03-08T13:36:55.694Z,10.00
2023-03-08T13:39:24.062Z,8.85
2023-03-08T13:41:51.147Z,9.63
2023-03-08T13:44:18.204Z,7.97
2023-03-08T13:46:45.961Z,8.10
2023-03-08T13:49:33.358Z,8.63
2023-03-08T13:52:01.387Z,8.55
2023-03-08T13:54:30.012Z,8.32
2023-03-08T13:56:59.827Z,7.30
2023-03-08T13:59:27.394Z,7.43
2023-03-08T14:01:54.800Z,7.90
2023-03-08T14:04:26.703Z,8.38
2023-03-08T14:06:55.085Z,9.77
2023-03-08T14:09:22.400Z,8.73
2023-03-08T14:11:58.576Z,8.43
2023-03-08T14:14:30.982Z,8.27
2023-03-08T14:16:59.495Z,9.68
2023-03-08T14:19:44.529Z,8.52
2023-03-08T14:22:21.132Z,8.32
2023-03-08T14:24:56.322Z,9.18
2023-03-08T14:27:40.938Z,8.32
2023-03-08T14:30:16.247Z,8.55
2023-03-08T14:32:56.478Z,9.00
2023-03-08T14:35:25.268Z,9.48
2023-03-08T14:37:56.107Z,8.20
2023-03-08T14:40:26.831Z,9.27
2023-03-08T14:43:02.820Z,7.68
2023-03-08T14:45:37.567Z,6.45
2023-03-08T14:48:26.148Z,5.13
2023-03-08T14:51:01.463Z,6.78
2023-03-08T14:53:30.306Z,6.57
2023-03-08T14:55:58.444Z,6.38
2023-03-08T14:58:32.878Z,5.85
2023-03-08T15:01:01.345Z,6.40
2023-03-08T15:03:29.285Z,5.68
2023-03-08T15:05:56.655Z,5.85
2023-03-08T15:08:23.738Z,5.80
2023-03-08T15:10:51.060Z,5.32
2023-03-08T15:13:22.351Z,6.97
2023-03-08T15:15:50.480Z,7.28
2023-03-08T15:18:17.931Z,8.32
2023-03-08T15:20:48.624Z,7.97
2023-03-08T15:23:22.340Z,6.97
2023-03-08T15:25:49.442Z,7.85
2023-03-08T15:28:17.412Z,8.10
2023-03-08T15:30:44.763Z,8.18
2023-03-08T15:33:11.751Z,7.40
2023-03-08T15:35:39.434Z,8.27
2023-03-08T15:38:06.731Z,8.15
2023-03-08T15:40:36.582Z,7.78
2023-03-08T15:43:03.631Z,7.30
2023-03-08T15:45:30.663Z,8.20
2023-03-08T15:48:00.792Z,9.38
2023-03-08T15:50:28.360Z,8.55
2023-03-08T15:52:55.890Z,9.00
2023-03-08T15:55:24.135Z,8.25
2023-03-08T15:57:51.353Z,6.93
2023-03-08T16:00:20.318Z,8.52
2023-03-08T16:02:47.577Z,8.55
2023-03-08T16:05:15.238Z,8.43
2023-03-08T16:07:42.941Z,8.80
2023-03-08T16:10:11.812Z,8.15
2023-03-08T16:12:38.821Z,7.78
2023-03-08T16:15:06.246Z,8.55
2023-03-08T16:17:33.347Z,8.23
2023-03-08T16:20:00.385Z,9.07
2023-03-08T16:22:28.947Z,10.18
2023-03-08T16:24:56.092Z,9.02
2023-03-08T16:27:23.119Z,7.95
2023-03-08T16:29:51.296Z,8.23
2023-03-08T16:32:18.882Z,8.48
2023-03-08T16:34:50.974Z,8.48
2023-03-08T16:37:21.307Z,8.90
2023-03-08T16:39:51.407Z,9.02
2023-03-08T16:42:18.892Z,8.82
2023-03-08T16:47:33.386Z,9.85
2023-03-08T16:50:02.254Z,8.63
2023-03-08T16:52:31.452Z,8.60
2023-03-08T16:54:59.661Z,9.45
2023-03-08T16:57:27.290Z,9.35
2023-03-08T16:59:54.306Z,9.18
2023-03-08T17:08:00.101Z,8.80
2023-03-08T17:10:35.159Z,9.57
2023-03-08T17:13:02.198Z,9.07
2023-03-08T17:15:29.250Z,10.10
2023-03-08T17:17:57.046Z,11.63
2023-03-08T17:20:24.099Z,12.70
2023-03-08T17:22:51.124Z,11.77
2023-03-08T17:25:18.297Z,12.98
2023-03-08T17:27:45.342Z,13.80
2023-03-08T17:33:06.976Z,12.45
2023-03-08T17:35:36.367Z,13.70
2023-03-08T17:38:04.252Z,13.13
2023-03-08T17:40:31.597Z,13.65
2023-03-08T17:45:41.043Z,12.80
2023-03-08T17:48:10.176Z,13.13
2023-03-08T17:50:39.405Z,13.43
2023-03-08T17:53:07.085Z,14.45
2023-03-08T17:58:04.900Z,14.88
2023-03-08T18:00:33.304Z,15.50
2023-03-08T18:05:48.003Z,15.73
2023-03-08T18:08:16.075Z,14.68
2023-03-08T18:10:44.833Z,16.00
2023-03-08T18:13:12.167Z,15.27
2023-03-08T18:15:39.215Z,17.95
2023-03-08T18:18:06.214Z,19.45
2023-03-08T18:20:34.997Z,19.50
2023-03-08T18:23:03.851Z,17.88
2023-03-08T18:25:33.897Z,18.60
2023-03-08T18:28:03.504Z,19.05
2023-03-08T18:30:31.479Z,22.02
2023-03-08T18:32:58.447Z,20.98
2023-03-08T18:35:25.531Z,20.13
2023-03-08T18:37:56.767Z,18.60
2023-03-08T18:40:24.810Z,18.83
2023-03-08T18:42:59.621Z,18.40
2023-03-08T18:48:08.050Z,20.80
2023-03-08T18:50:36.024Z,20.45
2023-03-08T18:53:11.236Z,24.15
2023-03-08T18:55:38.645Z,19.85
2023-03-08T18:58:06.325Z,20.08
2023-03-08T19:00:33.607Z,20.95
2023-03-08T19:03:01.990Z,18.85
2023-03-08T19:05:35.949Z,20.42
2023-03-08T19:08:06.785Z,20.40
2023-03-08T19:13:16.732Z,21.85
2023-03-08T19:15:44.198Z,21.67
2023-03-08T19:18:12.193Z,21.33
2023-03-08T19:20:40.087Z,21.27
2023-03-08T19:23:08.488Z,22.45
2023-03-08T19:25:56.202Z,21.30
2023-03-08T19:28:23.304Z,21.05
2023-03-08T19:30:50.295Z,20.98
2023-03-08T19:33:29.779Z,21.15
2023-03-08T19:35:57.853Z,20.35
2023-03-08T19:38:24.898Z,19.98
2023-03-08T19:40:53.233Z,19.42
2023-03-08T19:43:20.760Z,20.05
2023-03-08T19:45:51.320Z,18.90
2023-03-08T19:48:19.052Z,18.27
2023-03-08T19:50:47.092Z,21.65
2023-03-08T19:53:14.490Z,19.00
2023-03-08T19:55:54.565Z,21.65
2023-03-08T19:58:25.319Z,20.58
2023-03-08T20:03:22.438Z,19.52
2023-03-08T20:05:49.462Z,19.33
2023-03-08T20:08:16.583Z,20.90
2023-03-08T20:10:44.445Z,21.98
2023-03-08T20:13:11.863Z,23.23
2023-03-08T20:15:39.771Z,19.33
2023-03-08T20:18:07.813Z,20.83
2023-03-08T20:20:41.281Z,21.48
2023-03-08T20:23:08.977Z,19.67
2023-03-08T20:25:36.434Z,20.17
2023-03-08T20:28:03.766Z,21.35
2023-03-08T20:30:31.219Z,22.98
2023-03-08T20:33:00.109Z,22.35
2023-03-08T20:35:27.474Z,23.40
2023-03-08T20:37:54.956Z,22.25
2023-03-08T20:40:22.308Z,25.05
2023-03-08T20:42:49.714Z,23.95
2023-03-08T20:45:16.911Z,24.38
2023-03-08T20:47:44.090Z,26.33
2023-03-08T20:50:11.812Z,24.77
2023-03-08T20:52:38.781Z,24.23
2023-03-08T20:55:06.039Z,23.95
2023-03-08T20:57:33.026Z,23.95
2023-03-08T21:00:00.036Z,24.08
2023-03-08T21:02:27.132Z,22.88
2023-03-08T21:04:54.187Z,23.35
2023-03-08T21:07:21.800Z,23.67
2023-03-08T21:09:48.964Z,24.30
2023-03-08T21:12:17.502Z,25.42
2023-03-08T21:14:44.811Z,24.05
2023-03-08T21:17:13.544Z,22.52
2023-03-08T21:19:40.906Z,25.23
2023-03-08T21:22:10.514Z,23.38
2023-03-08T21:27:24.480Z,22.85
2023-03-08T21:29:51.489Z,22.13
2023-03-08T21:32:18.522Z,22.90
2023-03-08T21:34:45.896Z,22.48
2023-03-08T21:37:13.352Z,22.65
2023-03-08T21:39:44.349Z,22.92
2023-03-08T21:42:11.687Z,23.92
2023-03-08T21:44:41.244Z,23.17
2023-03-08T21:47:15.790Z,23.27
2023-03-08T21:49:43.369Z,23.52
2023-03-08T21:52:11.373Z,24.83
2023-03-08T21:54:42.610Z,25.15
2023-03-08T21:57:13.485Z,23.35
2023-03-08T21:59:44.424Z,23.15
2023-03-08T22:02:20.379Z,23.98
2023-03-08T22:04:47.909Z,22.45
2023-03-08T22:07:15.645Z,23.50
2023-03-08T22:09:44.296Z,24.27
2023-03-08T22:12:13.178Z,24.20
2023-03-08T22:14:40.183Z,24.92
2023-03-08T22:17:07.230Z,24.88
2023-03-08T22:19:34.671Z,25.63
2023-03-08T22:22:02.084Z,23.90
2023-03-08T22:24:29.438Z,24.25
2023-03-08T22:26:57.356Z,25.60
2023-03-08T22:29:25.816Z,25.23
2023-03-08T22:31:53.031Z,24.00
2023-03-08T22:34:20.558Z,25.92
2023-03-08T22:36:47.652Z,26.23
2023-03-08T22:39:14.697Z,25.60
2023-03-08T22:41:42.100Z,25.42
2023-03-08T22:44:13.023Z,26.92
2023-03-08T22:46:40.451Z,24.30
2023-03-08T22:49:11.629Z,24.58
2023-03-08T22:51:43.172Z,25.30
2023-03-08T22:54:14.743Z,24.27
2023-03-08T22:56:41.842Z,26.42
2023-03-08T22:59:08.975Z,24.08
2023-03-08T23:01:36.177Z,23.90
2023-03-08T23:04:04.154Z,24.17
2023-03-08T23:06:32.062Z,24.40
2023-03-08T23:08:59.896Z,24.33
2023-03-08T23:11:27.696Z,23.45
2023-03-08T23:13:55.167Z,22.95
2023-03-08T23:16:23.191Z,23.95
2023-03-08T23:18:51.003Z,23.48
2023-03-08T23:21:19.611Z,23.35
2023-03-08T23:23:47.185Z,24.40
2023-03-08T23:26:20.910Z,26.55
2023-03-08T23:28:48.284Z,24.65
2023-03-08T23:31:17.054Z,25.50
2023-03-08T23:33:48.075Z,25.42
2023-03-08T23:36:19.270Z,25.80
2023-03-08T23:38:46.768Z,23.90
2023-03-08T23:41:14.421Z,23.30
2023-03-08T23:43:44.200Z,25.23
2023-03-08T23:46:16.551Z,25.58
2023-03-08T23:48:46.194Z,25.58
2023-03-08T23:51:15.979Z,24.03
2023-03-08T23:53:47.017Z,25.53
2023-03-08T23:56:27.183Z,26.05
2023-03-08T23:58:55.320Z,24.83
